sensor_id;sensor_type;location;lat;lon;timestamp;temperature;humidity
5960;DHT22;3006;50.956;7.002;2022-09-16T00:01:11;15.40;99.90
5960;DHT22;3006;50.956;7.002;2022-09-16T00:03:40;15.40;99.90
5960;DHT22;3006;50.956;7.002;2022-09-16T00:06:16;15.30;99.90
5960;DHT22;3006;50.956;7.002;2022-09-16T00:08:44;15.30;99.90
5960;DHT22;3006;50.956;7.002;2022-09-16T00:11:13;15.30;99.90
5960;DHT22;3006;50.956;7.002;2022-09-16T00:13:44;15.20;99.90
5960;DHT22;3006;50.956;7.002;2022-09-16T00:16:16;15.20;99.90
5960;DHT22;3006;50.956;7.002;2022-09-16T00:18:45;15.20;99.90
5960;DHT22;3006;50.956;7.002;2022-09-16T00:21:13;15.20;99.90
5960;DHT22;3006;50.956;7.002;2022-09-16T00:23:41;15.20;99.90
5960;DHT22;3006;50.956;7.002;2022-09-16T00:26:09;15.10;99.90
5960;DHT22;3006;50.956;7.002;2022-09-16T00:28:38;15.10;99.90
5960;DHT22;3006;50.956;7.002;2022-09-16T00:31:08;15.20;99.90
5960;DHT22;3006;50.956;7.002;2022-09-16T00:33:36;15.10;99.90
5960;DHT22;3006;50.956;7.002;2022-09-16T00:36:09;15.20;99.90
5960;DHT22;3006;50.956;7.002;2022-09-16T00:38:39;15.20;99.90
5960;DHT22;3006;50.956;7.002;2022-09-16T00:41:13;15.10;99.90
5960;DHT22;3006;50.956;7.002;2022-09-16T00:43:51;15.20;99.90
5960;DHT22;3006;50.956;7.002;2022-09-16T00:46:25;15.20;99.90
5960;DHT22;3006;50.956;7.002;2022-09-16T00:48:56;15.20;99.90
5960;DHT22;3006;50.956;7.002;2022-09-16T00:51:25;15.20;99.90
5960;DHT22;3006;50.956;7.002;2022-09-16T00:53:57;15.10;99.90
5960;DHT22;3006;50.956;7.002;2022-09-16T00:56:31;15.10;99.90
5960;DHT22;3006;50.956;7.002;2022-09-16T00:59:04;15.20;99.90
5960;DHT22;3006;50.956;7.002;2022-09-16T01:01:36;15.20;99.90
5960;DHT22;3006;50.956;7.002;2022-09-16T01:04:08;15.20;99.90
5960;DHT22;3006;50.956;7.002;2022-09-16T01:06:40;15.20;99.90
5960;DHT22;3006;50.956;7.002;2022-09-16T01:09:08;15.20;99.90
5960;DHT22;3006;50.956;7.002;2022-09-16T01:11:36;15.20;99.90
5960;DHT22;3006;50.956;7.002;2022-09-16T01:14:04;15.20;99.90
5960;DHT22;3006;50.956;7.002;2022-09-16T01:16:57;15.10;99.90
5960;DHT22;3006;50.956;7.002;2022-09-16T01:19:48;15.10;99.90
5960;DHT22;3006;50.956;7.002;2022-09-16T01:22:31;15.10;99.90
5960;DHT22;3006;50.956;7.002;2022-09-16T01:25:10;15.00;99.90
5960;DHT22;3006;50.956;7.002;2022-09-16T01:28:06;15.00;99.90
5960;DHT22;3006;50.956;7.002;2022-09-16T01:30:45;15.00;99.90
5960;DHT22;3006;50.956;7.002;2022-09-16T01:33:25;15.00;99.90
5960;DHT22;3006;50.956;7.002;2022-09-16T01:36:06;15.00;99.90
5960;DHT22;3006;50.956;7.002;2022-09-16T01:38:51;15.00;99.90
5960;DHT22;3006;50.956;7.002;2022-09-16T01:41:25;15.00;99.90
5960;DHT22;3006;50.956;7.002;2022-09-16T01:44:00;15.00;99.90
5960;DHT22;3006;50.956;7.002;2022-09-16T01:46:36;15.00;99.90
5960;DHT22;3006;50.956;7.002;2022-09-16T01:49:15;15.00;99.90
5960;DHT22;3006;50.956;7.002;2022-09-16T01:51:49;15.00;99.90
5960;DHT22;3006;50.956;7.002;2022-09-16T01:54:26;15.00;99.90
5960;DHT22;3006;50.956;7.002;2022-09-16T01:57:01;15.00;99.90
5960;DHT22;3006;50.956;7.002;2022-09-16T01:59:35;15.00;99.90
5960;DHT22;3006;50.956;7.002;2022-09-16T02:02:10;15.00;99.90
5960;DHT22;3006;50.956;7.002;2022-09-16T02:04:47;15.00;99.90
5960;DHT22;3006;50.956;7.002;2022-09-16T02:07:18;15.00;99.90
5960;DHT22;3006;50.956;7.002;2022-09-16T02:09:50;15.00;99.90
5960;DHT22;3006;50.956;7.002;2022-09-16T02:12:22;15.00;99.90
5960;DHT22;3006;50.956;7.002;2022-09-16T02:14:55;15.10;99.90
5960;DHT22;3006;50.956;7.002;2022-09-16T02:17:27;15.10;99.90
5960;DHT22;3006;50.956;7.002;2022-09-16T02:20:00;15.20;99.90
5960;DHT22;3006;50.956;7.002;2022-09-16T02:22:33;15.20;99.90
5960;DHT22;3006;50.956;7.002;2022-09-16T02:25:05;15.20;99.90
5960;DHT22;3006;50.956;7.002;2022-09-16T02:27:35;15.10;99.90
5960;DHT22;3006;50.956;7.002;2022-09-16T02:30:07;15.10;99.90
5960;DHT22;3006;50.956;7.002;2022-09-16T02:32:40;15.10;99.90
5960;DHT22;3006;50.956;7.002;2022-09-16T02:35:11;15.10;99.90
5960;DHT22;3006;50.956;7.002;2022-09-16T02:37:46;15.10;99.90
5960;DHT22;3006;50.956;7.002;2022-09-16T02:40:21;15.10;99.90
5960;DHT22;3006;50.956;7.002;2022-09-16T02:42:51;15.10;99.90
5960;DHT22;3006;50.956;7.002;2022-09-16T02:45:23;15.10;99.90
5960;DHT22;3006;50.956;7.002;2022-09-16T02:48:00;15.10;99.90
5960;DHT22;3006;50.956;7.002;2022-09-16T02:50:31;15.10;99.90
5960;DHT22;3006;50.956;7.002;2022-09-16T02:53:09;15.10;99.90
5960;DHT22;3006;50.956;7.002;2022-09-16T02:55:45;15.10;99.90
5960;DHT22;3006;50.956;7.002;2022-09-16T02:58:17;15.10;99.90
5960;DHT22;3006;50.956;7.002;2022-09-16T03:00:48;15.10;99.90
5960;DHT22;3006;50.956;7.002;2022-09-16T03:03:18;15.10;99.90
5960;DHT22;3006;50.956;7.002;2022-09-16T03:06:12;15.00;99.90
5960;DHT22;3006;50.956;7.002;2022-09-16T03:08:42;15.00;99.90
5960;DHT22;3006;50.956;7.002;2022-09-16T03:11:22;14.90;99.90
5960;DHT22;3006;50.956;7.002;2022-09-16T03:14:07;14.90;99.90
5960;DHT22;3006;50.956;7.002;2022-09-16T03:16:43;14.80;99.90
5960;DHT22;3006;50.956;7.002;2022-09-16T03:19:22;14.80;99.90
5960;DHT22;3006;50.956;7.002;2022-09-16T03:21:57;14.80;99.90
5960;DHT22;3006;50.956;7.002;2022-09-16T03:24:33;14.80;99.90
5960;DHT22;3006;50.956;7.002;2022-09-16T03:27:07;14.80;99.90
5960;DHT22;3006;50.956;7.002;2022-09-16T03:29:39;14.90;99.90
5960;DHT22;3006;50.956;7.002;2022-09-16T03:32:14;14.90;99.90
5960;DHT22;3006;50.956;7.002;2022-09-16T03:34:48;14.90;99.90
5960;DHT22;3006;50.956;7.002;2022-09-16T03:37:19;14.90;99.90
5960;DHT22;3006;50.956;7.002;2022-09-16T03:39:50;14.90;99.90
5960;DHT22;3006;50.956;7.002;2022-09-16T03:42:19;14.90;99.90
5960;DHT22;3006;50.956;7.002;2022-09-16T03:44:48;14.90;99.90
5960;DHT22;3006;50.956;7.002;2022-09-16T03:47:16;14.90;99.90
5960;DHT22;3006;50.956;7.002;2022-09-16T03:49:46;15.00;99.90
5960;DHT22;3006;50.956;7.002;2022-09-16T03:52:14;14.90;99.90
5960;DHT22;3006;50.956;7.002;2022-09-16T03:54:44;14.90;99.90
5960;DHT22;3006;50.956;7.002;2022-09-16T03:57:12;14.90;99.90
5960;DHT22;3006;50.956;7.002;2022-09-16T03:59:40;14.90;99.90
5960;DHT22;3006;50.956;7.002;2022-09-16T04:02:08;15.00;99.90
5960;DHT22;3006;50.956;7.002;2022-09-16T04:04:37;15.00;99.90
5960;DHT22;3006;50.956;7.002;2022-09-16T04:07:06;15.00;99.90
5960;DHT22;3006;50.956;7.002;2022-09-16T04:09:34;15.00;99.90
5960;DHT22;3006;50.956;7.002;2022-09-16T04:12:03;14.90;99.90
5960;DHT22;3006;50.956;7.002;2022-09-16T04:14:33;14.90;99.90
5960;DHT22;3006;50.956;7.002;2022-09-16T04:17:02;14.90;99.90
5960;DHT22;3006;50.956;7.002;2022-09-16T04:19:30;14.90;99.90
5960;DHT22;3006;50.956;7.002;2022-09-16T04:21:58;14.90;99.90
5960;DHT22;3006;50.956;7.002;2022-09-16T04:24:28;14.90;99.90
5960;DHT22;3006;50.956;7.002;2022-09-16T04:26:56;14.80;99.90
5960;DHT22;3006;50.956;7.002;2022-09-16T04:29:24;14.70;99.90
5960;DHT22;3006;50.956;7.002;2022-09-16T04:31:53;14.70;99.90
5960;DHT22;3006;50.956;7.002;2022-09-16T04:34:21;14.80;99.90
5960;DHT22;3006;50.956;7.002;2022-09-16T04:36:49;14.70;99.90
5960;DHT22;3006;50.956;7.002;2022-09-16T04:39:17;14.80;99.90
5960;DHT22;3006;50.956;7.002;2022-09-16T04:41:47;14.70;99.90
5960;DHT22;3006;50.956;7.002;2022-09-16T04:44:16;14.70;99.90
5960;DHT22;3006;50.956;7.002;2022-09-16T04:46:44;14.70;99.90
5960;DHT22;3006;50.956;7.002;2022-09-16T04:49:13;14.70;99.90
5960;DHT22;3006;50.956;7.002;2022-09-16T04:51:41;14.60;99.90
5960;DHT22;3006;50.956;7.002;2022-09-16T04:54:09;14.60;99.90
5960;DHT22;3006;50.956;7.002;2022-09-16T04:56:38;14.60;99.90
5960;DHT22;3006;50.956;7.002;2022-09-16T04:59:08;14.60;99.90
5960;DHT22;3006;50.956;7.002;2022-09-16T05:01:38;14.60;99.90
5960;DHT22;3006;50.956;7.002;2022-09-16T05:04:08;14.50;99.90
5960;DHT22;3006;50.956;7.002;2022-09-16T05:06:38;14.50;99.90
5960;DHT22;3006;50.956;7.002;2022-09-16T05:09:06;14.50;99.90
5960;DHT22;3006;50.956;7.002;2022-09-16T05:11:36;14.50;99.90
5960;DHT22;3006;50.956;7.002;2022-09-16T05:14:08;14.50;99.90
5960;DHT22;3006;50.956;7.002;2022-09-16T05:16:37;14.50;99.90
5960;DHT22;3006;50.956;7.002;2022-09-16T05:19:05;14.50;99.90
5960;DHT22;3006;50.956;7.002;2022-09-16T05:21:35;14.40;99.90
5960;DHT22;3006;50.956;7.002;2022-09-16T05:24:05;14.50;99.90
5960;DHT22;3006;50.956;7.002;2022-09-16T05:26:35;14.40;99.90
5960;DHT22;3006;50.956;7.002;2022-09-16T05:29:05;14.40;99.90
5960;DHT22;3006;50.956;7.002;2022-09-16T05:31:36;14.40;99.90
5960;DHT22;3006;50.956;7.002;2022-09-16T05:34:06;14.40;99.90
5960;DHT22;3006;50.956;7.002;2022-09-16T05:36:37;14.40;99.90
5960;DHT22;3006;50.956;7.002;2022-09-16T05:39:06;14.40;99.90
5960;DHT22;3006;50.956;7.002;2022-09-16T05:41:53;14.40;99.90
5960;DHT22;3006;50.956;7.002;2022-09-16T05:44:21;14.40;99.90
5960;DHT22;3006;50.956;7.002;2022-09-16T05:46:51;14.40;99.90
5960;DHT22;3006;50.956;7.002;2022-09-16T05:49:19;14.40;99.90
5960;DHT22;3006;50.956;7.002;2022-09-16T05:51:48;14.40;99.90
5960;DHT22;3006;50.956;7.002;2022-09-16T05:54:16;14.40;99.90
5960;DHT22;3006;50.956;7.002;2022-09-16T05:56:45;14.50;99.90
5960;DHT22;3006;50.956;7.002;2022-09-16T05:59:15;14.50;99.90
5960;DHT22;3006;50.956;7.002;2022-09-16T06:01:43;14.50;99.90
5960;DHT22;3006;50.956;7.002;2022-09-16T06:04:14;14.60;99.90
5960;DHT22;3006;50.956;7.002;2022-09-16T06:06:43;14.60;99.90
5960;DHT22;3006;50.956;7.002;2022-09-16T06:09:13;14.70;99.90
5960;DHT22;3006;50.956;7.002;2022-09-16T06:11:43;14.70;99.90
5960;DHT22;3006;50.956;7.002;2022-09-16T06:14:12;14.60;99.90
5960;DHT22;3006;50.956;7.002;2022-09-16T06:16:41;14.60;99.90
5960;DHT22;3006;50.956;7.002;2022-09-16T06:19:14;14.60;99.90
5960;DHT22;3006;50.956;7.002;2022-09-16T06:21:43;14.70;99.90
5960;DHT22;3006;50.956;7.002;2022-09-16T06:24:13;14.70;99.90
5960;DHT22;3006;50.956;7.002;2022-09-16T06:26:42;14.70;99.90
5960;DHT22;3006;50.956;7.002;2022-09-16T06:29:11;14.70;99.90
5960;DHT22;3006;50.956;7.002;2022-09-16T06:31:40;14.70;99.90
5960;DHT22;3006;50.956;7.002;2022-09-16T06:34:16;14.70;99.90
5960;DHT22;3006;50.956;7.002;2022-09-16T06:36:45;14.70;99.90
5960;DHT22;3006;50.956;7.002;2022-09-16T06:39:14;14.70;99.90
5960;DHT22;3006;50.956;7.002;2022-09-16T06:41:43;14.80;99.90
5960;DHT22;3006;50.956;7.002;2022-09-16T06:44:11;14.80;99.90
5960;DHT22;3006;50.956;7.002;2022-09-16T06:46:39;14.80;99.90
5960;DHT22;3006;50.956;7.002;2022-09-16T06:49:07;14.80;99.90
5960;DHT22;3006;50.956;7.002;2022-09-16T06:51:38;14.90;99.90
5960;DHT22;3006;50.956;7.002;2022-09-16T06:54:07;14.90;99.90
5960;DHT22;3006;50.956;7.002;2022-09-16T06:56:35;14.90;99.90
5960;DHT22;3006;50.956;7.002;2022-09-16T06:59:05;14.90;99.90
5960;DHT22;3006;50.956;7.002;2022-09-16T07:01:33;14.90;99.90
5960;DHT22;3006;50.956;7.002;2022-09-16T07:04:03;14.90;99.90
5960;DHT22;3006;50.956;7.002;2022-09-16T07:06:33;15.00;99.90
5960;DHT22;3006;50.956;7.002;2022-09-16T07:09:22;15.00;99.90
5960;DHT22;3006;50.956;7.002;2022-09-16T07:11:50;15.00;99.90
5960;DHT22;3006;50.956;7.002;2022-09-16T07:14:18;15.10;99.90
5960;DHT22;3006;50.956;7.002;2022-09-16T07:16:46;15.10;99.90
5960;DHT22;3006;50.956;7.002;2022-09-16T07:19:14;15.10;99.90
5960;DHT22;3006;50.956;7.002;2022-09-16T07:21:42;15.10;99.90
5960;DHT22;3006;50.956;7.002;2022-09-16T07:24:12;15.10;99.90
5960;DHT22;3006;50.956;7.002;2022-09-16T07:26:43;15.10;99.90
5960;DHT22;3006;50.956;7.002;2022-09-16T07:29:12;15.10;99.90
5960;DHT22;3006;50.956;7.002;2022-09-16T07:31:41;15.20;99.90
5960;DHT22;3006;50.956;7.002;2022-09-16T07:34:11;15.10;99.90
5960;DHT22;3006;50.956;7.002;2022-09-16T07:36:41;15.10;99.90
5960;DHT22;3006;50.956;7.002;2022-09-16T07:39:10;15.10;99.90
5960;DHT22;3006;50.956;7.002;2022-09-16T07:41:40;15.10;99.90
5960;DHT22;3006;50.956;7.002;2022-09-16T07:44:12;15.20;99.90
5960;DHT22;3006;50.956;7.002;2022-09-16T07:46:41;15.30;99.90
5960;DHT22;3006;50.956;7.002;2022-09-16T07:49:13;15.20;99.90
5960;DHT22;3006;50.956;7.002;2022-09-16T07:51:41;15.20;99.90
5960;DHT22;3006;50.956;7.002;2022-09-16T07:54:11;15.20;99.90
5960;DHT22;3006;50.956;7.002;2022-09-16T07:56:41;15.10;99.90
5960;DHT22;3006;50.956;7.002;2022-09-16T07:59:13;15.10;99.90
5960;DHT22;3006;50.956;7.002;2022-09-16T08:01:45;15.20;99.90
5960;DHT22;3006;50.956;7.002;2022-09-16T08:04:13;15.20;99.90
5960;DHT22;3006;50.956;7.002;2022-09-16T08:06:41;15.30;99.90
5960;DHT22;3006;50.956;7.002;2022-09-16T08:09:09;15.30;99.90
5960;DHT22;3006;50.956;7.002;2022-09-16T08:11:58;15.30;99.90
5960;DHT22;3006;50.956;7.002;2022-09-16T08:14:29;15.40;99.90
5960;DHT22;3006;50.956;7.002;2022-09-16T08:16:58;15.40;99.90
5960;DHT22;3006;50.956;7.002;2022-09-16T08:19:27;15.30;99.90
5960;DHT22;3006;50.956;7.002;2022-09-16T08:21:55;15.30;99.90
5960;DHT22;3006;50.956;7.002;2022-09-16T08:24:23;15.30;99.90
5960;DHT22;3006;50.956;7.002;2022-09-16T08:26:51;15.30;99.90
5960;DHT22;3006;50.956;7.002;2022-09-16T08:29:25;15.40;99.90
5960;DHT22;3006;50.956;7.002;2022-09-16T08:31:54;15.50;99.90
5960;DHT22;3006;50.956;7.002;2022-09-16T08:34:22;15.60;99.90
5960;DHT22;3006;50.956;7.002;2022-09-16T08:36:50;15.70;99.90
5960;DHT22;3006;50.956;7.002;2022-09-16T08:39:18;15.90;99.90
5960;DHT22;3006;50.956;7.002;2022-09-16T08:45:08;15.80;99.90
5960;DHT22;3006;50.956;7.002;2022-09-16T08:47:49;15.60;99.90
5960;DHT22;3006;50.956;7.002;2022-09-16T08:50:25;15.60;99.90
5960;DHT22;3006;50.956;7.002;2022-09-16T08:52:56;15.70;99.90
5960;DHT22;3006;50.956;7.002;2022-09-16T08:55:26;15.70;99.90
5960;DHT22;3006;50.956;7.002;2022-09-16T08:57:59;15.70;99.90
5960;DHT22;3006;50.956;7.002;2022-09-16T09:00:28;15.90;99.90
5960;DHT22;3006;50.956;7.002;2022-09-16T09:03:04;15.90;99.90
5960;DHT22;3006;50.956;7.002;2022-09-16T09:05:44;15.90;99.90
5960;DHT22;3006;50.956;7.002;2022-09-16T09:08:33;16.00;99.90
5960;DHT22;3006;50.956;7.002;2022-09-16T09:11:09;16.00;99.90
5960;DHT22;3006;50.956;7.002;2022-09-16T09:13:53;16.10;99.90
5960;DHT22;3006;50.956;7.002;2022-09-16T09:16:31;16.10;99.90
5960;DHT22;3006;50.956;7.002;2022-09-16T09:19:15;16.00;99.90
5960;DHT22;3006;50.956;7.002;2022-09-16T09:21:48;15.90;99.90
5960;DHT22;3006;50.956;7.002;2022-09-16T09:24:30;15.90;99.90
5960;DHT22;3006;50.956;7.002;2022-09-16T09:27:06;15.90;99.90
5960;DHT22;3006;50.956;7.002;2022-09-16T09:29:55;15.90;99.90
5960;DHT22;3006;50.956;7.002;2022-09-16T09:32:32;16.10;99.90
5960;DHT22;3006;50.956;7.002;2022-09-16T09:35:29;16.20;99.90
5960;DHT22;3006;50.956;7.002;2022-09-16T09:38:19;16.30;99.90
5960;DHT22;3006;50.956;7.002;2022-09-16T09:40:52;16.40;99.90
5960;DHT22;3006;50.956;7.002;2022-09-16T09:43:28;16.30;99.90
5960;DHT22;3006;50.956;7.002;2022-09-16T09:46:01;16.30;99.90
5960;DHT22;3006;50.956;7.002;2022-09-16T09:48:34;16.40;99.90
5960;DHT22;3006;50.956;7.002;2022-09-16T09:51:12;16.40;99.90
5960;DHT22;3006;50.956;7.002;2022-09-16T09:53:46;16.30;99.90
5960;DHT22;3006;50.956;7.002;2022-09-16T09:56:20;16.40;99.90
5960;DHT22;3006;50.956;7.002;2022-09-16T09:58:55;16.50;99.90
5960;DHT22;3006;50.956;7.002;2022-09-16T10:01:26;16.40;99.90
5960;DHT22;3006;50.956;7.002;2022-09-16T10:03:54;16.50;99.90
5960;DHT22;3006;50.956;7.002;2022-09-16T10:06:29;16.60;99.90
5960;DHT22;3006;50.956;7.002;2022-09-16T10:09:00;16.60;99.90
5960;DHT22;3006;50.956;7.002;2022-09-16T10:11:30;16.70;99.90
5960;DHT22;3006;50.956;7.002;2022-09-16T10:14:00;16.80;99.90
5960;DHT22;3006;50.956;7.002;2022-09-16T10:16:31;16.80;99.90
5960;DHT22;3006;50.956;7.002;2022-09-16T10:19:02;17.00;99.90
5960;DHT22;3006;50.956;7.002;2022-09-16T10:21:43;17.20;99.90
5960;DHT22;3006;50.956;7.002;2022-09-16T10:24:28;17.20;99.90
5960;DHT22;3006;50.956;7.002;2022-09-16T10:26:57;17.00;99.90
5960;DHT22;3006;50.956;7.002;2022-09-16T10:29:26;16.80;99.90
5960;DHT22;3006;50.956;7.002;2022-09-16T10:31:55;16.80;99.90
5960;DHT22;3006;50.956;7.002;2022-09-16T10:34:28;16.70;99.90
5960;DHT22;3006;50.956;7.002;2022-09-16T10:37:02;16.70;99.90
5960;DHT22;3006;50.956;7.002;2022-09-16T10:39:31;17.00;99.90
5960;DHT22;3006;50.956;7.002;2022-09-16T10:42:01;17.20;99.90
5960;DHT22;3006;50.956;7.002;2022-09-16T10:44:31;17.40;99.90
5960;DHT22;3006;50.956;7.002;2022-09-16T10:47:03;17.50;99.90
5960;DHT22;3006;50.956;7.002;2022-09-16T10:49:37;17.60;99.90
5960;DHT22;3006;50.956;7.002;2022-09-16T10:52:14;17.70;99.90
5960;DHT22;3006;50.956;7.002;2022-09-16T10:54:43;17.60;99.90
5960;DHT22;3006;50.956;7.002;2022-09-16T10:57:26;17.60;99.90
5960;DHT22;3006;50.956;7.002;2022-09-16T11:00:01;17.70;99.90
5960;DHT22;3006;50.956;7.002;2022-09-16T11:05:30;17.70;99.90
5960;DHT22;3006;50.956;7.002;2022-09-16T11:08:09;17.80;99.90
5960;DHT22;3006;50.956;7.002;2022-09-16T11:10:42;17.60;99.90
5960;DHT22;3006;50.956;7.002;2022-09-16T11:13:24;17.50;99.90
5960;DHT22;3006;50.956;7.002;2022-09-16T11:16:15;17.30;99.90
5960;DHT22;3006;50.956;7.002;2022-09-16T11:18:52;17.10;99.90
5960;DHT22;3006;50.956;7.002;2022-09-16T11:21:31;17.00;99.90
5960;DHT22;3006;50.956;7.002;2022-09-16T11:24:15;17.00;99.90
5960;DHT22;3006;50.956;7.002;2022-09-16T11:26:51;17.00;99.90
5960;DHT22;3006;50.956;7.002;2022-09-16T11:29:39;17.20;99.90
5960;DHT22;3006;50.956;7.002;2022-09-16T11:32:13;17.30;99.90
5960;DHT22;3006;50.956;7.002;2022-09-16T11:34:55;17.40;99.90
5960;DHT22;3006;50.956;7.002;2022-09-16T11:37:31;17.50;99.90
5960;DHT22;3006;50.956;7.002;2022-09-16T11:40:14;17.80;99.90
5960;DHT22;3006;50.956;7.002;2022-09-16T11:42:50;17.70;99.90
5960;DHT22;3006;50.956;7.002;2022-09-16T11:45:38;17.70;99.90
5960;DHT22;3006;50.956;7.002;2022-09-16T11:51:10;17.60;99.90
5960;DHT22;3006;50.956;7.002;2022-09-16T11:53:53;17.70;99.90
5960;DHT22;3006;50.956;7.002;2022-09-16T11:56:33;17.90;99.90
5960;DHT22;3006;50.956;7.002;2022-09-16T11:59:12;18.10;99.90
5960;DHT22;3006;50.956;7.002;2022-09-16T12:01:43;18.00;99.20
5960;DHT22;3006;50.956;7.002;2022-09-16T12:04:18;17.80;99.20
5960;DHT22;3006;50.956;7.002;2022-09-16T12:06:53;17.60;99.10
5960;DHT22;3006;50.956;7.002;2022-09-16T12:09:27;17.60;99.10
5960;DHT22;3006;50.956;7.002;2022-09-16T12:12:04;17.50;99.10
5960;DHT22;3006;50.956;7.002;2022-09-16T12:14:39;17.60;99.80
5960;DHT22;3006;50.956;7.002;2022-09-16T12:17:12;17.70;99.90
5960;DHT22;3006;50.956;7.002;2022-09-16T12:19:46;17.80;99.90
5960;DHT22;3006;50.956;7.002;2022-09-16T12:22:19;18.00;99.80
5960;DHT22;3006;50.956;7.002;2022-09-16T12:24:51;18.30;99.50
5960;DHT22;3006;50.956;7.002;2022-09-16T12:27:31;18.50;99.30
5960;DHT22;3006;50.956;7.002;2022-09-16T12:30:05;18.40;99.60
5960;DHT22;3006;50.956;7.002;2022-09-16T12:32:46;18.00;99.90
5960;DHT22;3006;50.956;7.002;2022-09-16T12:35:18;17.10;99.90
5960;DHT22;3006;50.956;7.002;2022-09-16T12:37:50;16.30;99.90
5960;DHT22;3006;50.956;7.002;2022-09-16T12:40:21;15.60;99.90
5960;DHT22;3006;50.956;7.002;2022-09-16T12:43:27;15.00;99.90
5960;DHT22;3006;50.956;7.002;2022-09-16T12:49:27;14.30;99.90
5960;DHT22;3006;50.956;7.002;2022-09-16T12:52:17;14.30;99.90
5960;DHT22;3006;50.956;7.002;2022-09-16T12:58:14;14.40;99.90
5960;DHT22;3006;50.956;7.002;2022-09-16T13:00:54;14.60;99.90
5960;DHT22;3006;50.956;7.002;2022-09-16T13:03:26;14.70;99.90
5960;DHT22;3006;50.956;7.002;2022-09-16T13:06:02;14.90;99.90
5960;DHT22;3006;50.956;7.002;2022-09-16T13:08:34;15.10;99.90
5960;DHT22;3006;50.956;7.002;2022-09-16T13:11:05;15.20;99.90
5960;DHT22;3006;50.956;7.002;2022-09-16T13:13:57;15.50;99.90
5960;DHT22;3006;50.956;7.002;2022-09-16T13:16:29;15.60;99.90
5960;DHT22;3006;50.956;7.002;2022-09-16T13:19:37;15.70;99.90
5960;DHT22;3006;50.956;7.002;2022-09-16T13:22:19;15.90;99.90
5960;DHT22;3006;50.956;7.002;2022-09-16T13:24:52;16.10;99.90
5960;DHT22;3006;50.956;7.002;2022-09-16T13:27:25;16.10;99.90
5960;DHT22;3006;50.956;7.002;2022-09-16T13:30:12;16.30;99.90
5960;DHT22;3006;50.956;7.002;2022-09-16T13:32:43;16.50;99.90
5960;DHT22;3006;50.956;7.002;2022-09-16T13:35:33;16.60;99.90
5960;DHT22;3006;50.956;7.002;2022-09-16T13:38:19;16.50;99.90
5960;DHT22;3006;50.956;7.002;2022-09-16T13:40:54;16.50;99.90
5960;DHT22;3006;50.956;7.002;2022-09-16T13:43:34;16.50;99.90
5960;DHT22;3006;50.956;7.002;2022-09-16T13:46:08;16.30;99.90
5960;DHT22;3006;50.956;7.002;2022-09-16T13:48:43;16.20;99.90
5960;DHT22;3006;50.956;7.002;2022-09-16T13:51:17;16.30;99.90
5960;DHT22;3006;50.956;7.002;2022-09-16T13:53:47;16.50;99.90
5960;DHT22;3006;50.956;7.002;2022-09-16T13:56:41;16.70;99.90
5960;DHT22;3006;50.956;7.002;2022-09-16T13:59:21;16.80;99.90
5960;DHT22;3006;50.956;7.002;2022-09-16T14:02:02;16.70;99.90
5960;DHT22;3006;50.956;7.002;2022-09-16T14:04:45;16.50;99.90
5960;DHT22;3006;50.956;7.002;2022-09-16T14:07:28;16.30;99.90
5960;DHT22;3006;50.956;7.002;2022-09-16T14:10:01;16.10;99.90
5960;DHT22;3006;50.956;7.002;2022-09-16T14:12:38;16.00;99.90
5960;DHT22;3006;50.956;7.002;2022-09-16T14:15:09;16.00;99.90
5960;DHT22;3006;50.956;7.002;2022-09-16T14:17:41;16.00;99.90
5960;DHT22;3006;50.956;7.002;2022-09-16T14:20:18;15.90;99.90
5960;DHT22;3006;50.956;7.002;2022-09-16T14:22:47;15.90;99.90
5960;DHT22;3006;50.956;7.002;2022-09-16T14:25:27;15.80;99.90
5960;DHT22;3006;50.956;7.002;2022-09-16T14:28:15;15.90;99.90
5960;DHT22;3006;50.956;7.002;2022-09-16T14:30:46;16.20;99.90
5960;DHT22;3006;50.956;7.002;2022-09-16T14:33:21;17.50;99.90
5960;DHT22;3006;50.956;7.002;2022-09-16T14:35:52;19.50;99.90
5960;DHT22;3006;50.956;7.002;2022-09-16T14:38:26;21.60;99.60
5960;DHT22;3006;50.956;7.002;2022-09-16T14:41:22;23.20;97.10
5960;DHT22;3006;50.956;7.002;2022-09-16T14:43:52;24.40;94.40
5960;DHT22;3006;50.956;7.002;2022-09-16T14:46:21;25.00;93.30
5960;DHT22;3006;50.956;7.002;2022-09-16T14:48:51;25.00;92.80
5960;DHT22;3006;50.956;7.002;2022-09-16T14:51:21;23.80;93.50
5960;DHT22;3006;50.956;7.002;2022-09-16T14:53:55;22.20;95.70
5960;DHT22;3006;50.956;7.002;2022-09-16T14:56:39;20.40;98.50
5960;DHT22;3006;50.956;7.002;2022-09-16T14:59:09;18.80;99.90
5960;DHT22;3006;50.956;7.002;2022-09-16T15:01:39;18.10;99.90
5960;DHT22;3006;50.956;7.002;2022-09-16T15:04:13;17.90;99.90
5960;DHT22;3006;50.956;7.002;2022-09-16T15:06:47;17.70;99.90
5960;DHT22;3006;50.956;7.002;2022-09-16T15:09:19;17.40;99.90
5960;DHT22;3006;50.956;7.002;2022-09-16T15:11:54;17.20;99.90
5960;DHT22;3006;50.956;7.002;2022-09-16T15:14:23;16.90;99.90
5960;DHT22;3006;50.956;7.002;2022-09-16T15:16:54;16.90;99.90
5960;DHT22;3006;50.956;7.002;2022-09-16T15:19:28;16.80;99.90
5960;DHT22;3006;50.956;7.002;2022-09-16T15:21:57;16.80;99.90
5960;DHT22;3006;50.956;7.002;2022-09-16T15:24:28;16.80;99.90
5960;DHT22;3006;50.956;7.002;2022-09-16T15:26:57;16.70;99.90
5960;DHT22;3006;50.956;7.002;2022-09-16T15:29:31;16.60;99.90
5960;DHT22;3006;50.956;7.002;2022-09-16T15:32:16;16.60;99.90
5960;DHT22;3006;50.956;7.002;2022-09-16T15:34:46;16.60;99.90
5960;DHT22;3006;50.956;7.002;2022-09-16T15:37:32;16.50;99.90
5960;DHT22;3006;50.956;7.002;2022-09-16T15:40:08;16.40;99.90
5960;DHT22;3006;50.956;7.002;2022-09-16T15:42:37;16.40;99.90
5960;DHT22;3006;50.956;7.002;2022-09-16T15:45:14;16.20;99.90
5960;DHT22;3006;50.956;7.002;2022-09-16T15:47:56;16.30;99.90
5960;DHT22;3006;50.956;7.002;2022-09-16T15:50:28;16.30;99.90
5960;DHT22;3006;50.956;7.002;2022-09-16T15:53:00;16.10;99.90
5960;DHT22;3006;50.956;7.002;2022-09-16T15:55:39;16.10;99.90
5960;DHT22;3006;50.956;7.002;2022-09-16T15:58:11;16.10;99.90
5960;DHT22;3006;50.956;7.002;2022-09-16T16:01:02;15.90;99.90
5960;DHT22;3006;50.956;7.002;2022-09-16T16:03:36;15.80;99.90
5960;DHT22;3006;50.956;7.002;2022-09-16T16:06:07;15.90;99.90
5960;DHT22;3006;50.956;7.002;2022-09-16T16:08:38;15.90;99.90
5960;DHT22;3006;50.956;7.002;2022-09-16T16:11:08;15.80;99.90
5960;DHT22;3006;50.956;7.002;2022-09-16T16:13:36;15.70;99.90
5960;DHT22;3006;50.956;7.002;2022-09-16T16:16:05;15.70;99.90
5960;DHT22;3006;50.956;7.002;2022-09-16T16:18:35;15.70;99.90
5960;DHT22;3006;50.956;7.002;2022-09-16T16:21:05;15.60;99.90
5960;DHT22;3006;50.956;7.002;2022-09-16T16:23:35;15.60;99.90
5960;DHT22;3006;50.956;7.002;2022-09-16T16:26:06;15.60;99.90
5960;DHT22;3006;50.956;7.002;2022-09-16T16:28:34;15.50;99.90
5960;DHT22;3006;50.956;7.002;2022-09-16T16:31:09;15.50;99.90
5960;DHT22;3006;50.956;7.002;2022-09-16T16:33:37;15.50;99.90
5960;DHT22;3006;50.956;7.002;2022-09-16T16:36:11;15.50;99.90
5960;DHT22;3006;50.956;7.002;2022-09-16T16:38:41;15.40;99.90
5960;DHT22;3006;50.956;7.002;2022-09-16T16:41:09;15.50;99.90
5960;DHT22;3006;50.956;7.002;2022-09-16T16:43:38;15.50;99.90
5960;DHT22;3006;50.956;7.002;2022-09-16T16:46:06;15.50;99.90
5960;DHT22;3006;50.956;7.002;2022-09-16T16:48:34;15.50;99.90
5960;DHT22;3006;50.956;7.002;2022-09-16T16:51:04;15.40;99.90
5960;DHT22;3006;50.956;7.002;2022-09-16T16:53:33;15.40;99.90
5960;DHT22;3006;50.956;7.002;2022-09-16T16:56:04;15.30;99.90
5960;DHT22;3006;50.956;7.002;2022-09-16T16:58:39;15.30;99.90